createdAt,value
2023-05-02T00:02:17.964Z,27.00
2023-05-02T00:04:44.988Z,28.00
2023-05-02T00:07:12.018Z,26.43
2023-05-02T00:09:38.908Z,28.03
2023-05-02T00:12:05.890Z,28.20
2023-05-02T00:14:33.045Z,28.47
2023-05-02T00:17:00.058Z,29.07
2023-05-02T00:19:27.017Z,28.73
2023-05-02T00:21:53.921Z,27.47
2023-05-02T00:24:21.135Z,26.83
2023-05-02T00:26:48.066Z,27.07
2023-05-02T00:29:14.994Z,26.63
2023-05-02T00:31:42.066Z,29.23
2023-05-02T00:34:09.031Z,28.23
2023-05-02T00:36:35.950Z,28.13
2023-05-02T00:39:02.802Z,26.87
2023-05-02T00:41:29.686Z,28.07
2023-05-02T00:43:58.428Z,29.67
2023-05-02T00:46:25.462Z,30.30
2023-05-02T00:48:53.361Z,29.97
2023-05-02T00:51:20.465Z,27.90
2023-05-02T00:53:47.342Z,27.30
2023-05-02T00:56:14.252Z,27.70
2023-05-02T00:58:41.429Z,26.67
2023-05-02T01:01:29.401Z,25.67
2023-05-02T01:04:14.874Z,24.83
2023-05-02T01:07:21.727Z,25.77
2023-05-02T01:10:10.038Z,25.00
2023-05-02T01:13:14.108Z,24.90
2023-05-02T01:15:41.399Z,25.97
2023-05-02T01:18:12.245Z,25.00
2023-05-02T01:20:41.989Z,25.30
2023-05-02T01:23:37.548Z,25.30
2023-05-02T01:26:25.659Z,23.37
2023-05-02T01:29:08.465Z,22.50
2023-05-02T01:31:37.092Z,20.70
2023-05-02T01:34:05.742Z,21.43
2023-05-02T01:36:32.759Z,19.90
2023-05-02T01:39:00.610Z,17.10
2023-05-02T01:41:28.215Z,14.97
2023-05-02T01:43:59.318Z,14.27
2023-05-02T01:46:34.399Z,12.87
2023-05-02T01:49:04.301Z,10.63
2023-05-02T01:51:32.961Z,8.23
2023-05-02T01:54:07.532Z,8.97
2023-05-02T01:56:35.670Z,7.93
2023-05-02T01:59:03.849Z,7.50
2023-05-02T02:01:31.309Z,7.23
2023-05-02T02:03:58.659Z,7.47
2023-05-02T02:06:26.240Z,6.70
2023-05-02T02:08:53.235Z,6.03
2023-05-02T02:11:25.134Z,5.97
2023-05-02T02:13:55.444Z,6.47
2023-05-02T02:16:25.883Z,6.87
2023-05-02T02:18:52.812Z,7.20
2023-05-02T02:21:19.762Z,7.43
2023-05-02T02:23:48.129Z,6.90
2023-05-02T02:26:15.164Z,7.20
2023-05-02T02:28:42.929Z,7.03
2023-05-02T02:31:09.844Z,7.23
2023-05-02T02:33:36.931Z,7.57
2023-05-02T02:36:09.109Z,7.50
2023-05-02T02:38:48.469Z,7.80
2023-05-02T02:41:20.145Z,8.27
2023-05-02T02:44:05.249Z,7.93
2023-05-02T02:46:51.327Z,8.83
2023-05-02T02:49:44.520Z,7.40
2023-05-02T02:52:37.280Z,6.80
2023-05-02T02:55:18.100Z,6.20
2023-05-02T02:57:55.274Z,5.70
2023-05-02T03:00:24.326Z,6.53
2023-05-02T03:02:53.313Z,6.20
2023-05-02T03:05:21.356Z,5.97
2023-05-02T03:07:48.294Z,5.77
2023-05-02T03:10:15.153Z,5.57
2023-05-02T03:12:42.029Z,6.13
2023-05-02T03:15:24.222Z,6.03
2023-05-02T03:17:53.176Z,4.90
2023-05-02T03:20:20.185Z,5.00
2023-05-02T03:22:47.087Z,3.90
2023-05-02T03:25:13.988Z,4.87
2023-05-02T03:27:42.909Z,3.97
2023-05-02T03:30:10.161Z,4.83
2023-05-02T03:32:37.097Z,5.97
2023-05-02T03:35:05.834Z,5.80
2023-05-02T03:37:34.498Z,5.93
2023-05-02T03:40:01.571Z,6.40
2023-05-02T03:42:28.633Z,5.67
2023-05-02T03:44:55.612Z,5.87
2023-05-02T03:47:22.638Z,4.80
2023-05-02T03:49:49.566Z,5.33
2023-05-02T03:52:16.565Z,4.83
2023-05-02T03:54:43.828Z,6.10
2023-05-02T03:57:12.411Z,6.90
2023-05-02T03:59:41.727Z,7.17
2023-05-02T04:02:09.058Z,6.90
2023-05-02T04:04:36.513Z,6.60
2023-05-02T04:07:03.562Z,5.67
2023-05-02T04:09:30.504Z,5.83
2023-05-02T04:11:57.414Z,5.47
2023-05-02T04:14:24.391Z,5.17
2023-05-02T04:16:51.755Z,5.33
2023-05-02T04:19:18.970Z,6.77
2023-05-02T04:21:45.927Z,5.80
2023-05-02T04:24:13.634Z,5.33
2023-05-02T04:26:40.549Z,5.30
2023-05-02T04:29:07.443Z,5.20
2023-05-02T04:31:34.397Z,4.97
2023-05-02T04:34:01.693Z,4.97
2023-05-02T04:36:29.682Z,4.30
2023-05-02T04:38:57.580Z,4.20
2023-05-02T04:41:24.494Z,4.20
2023-05-02T04:43:52.371Z,4.40
2023-05-02T04:46:19.444Z,4.03
2023-05-02T04:48:46.462Z,4.53
2023-05-02T04:51:14.877Z,4.13
2023-05-02T04:53:43.271Z,4.27
2023-05-02T04:56:11.346Z,4.97
2023-05-02T04:58:38.331Z,4.47
2023-05-02T05:01:05.363Z,4.13
2023-05-02T05:03:33.670Z,5.20
2023-05-02T05:06:02.585Z,4.20
2023-05-02T05:08:29.633Z,4.03
2023-05-02T05:10:56.663Z,3.80
2023-05-02T05:13:23.521Z,3.60
2023-05-02T05:15:50.509Z,4.57
2023-05-02T05:18:17.409Z,4.13
2023-05-02T05:20:44.321Z,4.00
2023-05-02T05:23:11.256Z,5.00
2023-05-02T05:25:38.209Z,4.20
2023-05-02T05:28:05.179Z,3.40
2023-05-02T05:30:32.220Z,3.27
2023-05-02T05:32:59.114Z,3.00
2023-05-02T05:35:28.051Z,3.50
2023-05-02T05:37:54.974Z,3.27
2023-05-02T05:40:22.872Z,3.60
2023-05-02T05:42:49.784Z,3.70
2023-05-02T05:45:19.513Z,4.00
2023-05-02T05:47:46.629Z,3.47
2023-05-02T05:50:13.484Z,3.90
2023-05-02T05:52:40.449Z,2.67
2023-05-02T05:55:07.838Z,3.30
2023-05-02T05:57:34.805Z,3.40
2023-05-02T06:00:02.139Z,2.10
2023-05-02T06:02:29.362Z,2.50
2023-05-02T06:04:56.278Z,2.50
2023-05-02T06:07:23.380Z,2.50
2023-05-02T06:09:50.295Z,2.23
2023-05-02T06:12:17.144Z,2.67
2023-05-02T06:14:44.078Z,2.80
2023-05-02T06:17:10.962Z,2.67
2023-05-02T06:19:37.840Z,2.60
2023-05-02T06:22:05.049Z,2.90
2023-05-02T06:24:32.045Z,3.40
2023-05-02T06:26:59.377Z,3.00
2023-05-02T06:29:27.213Z,2.40
2023-05-02T06:31:56.646Z,3.07
2023-05-02T06:34:23.619Z,3.07
2023-05-02T06:37:00.349Z,2.43
2023-05-02T06:39:27.242Z,3.87
2023-05-02T06:41:58.421Z,3.23
2023-05-02T06:44:25.370Z,3.03
2023-05-02T06:46:52.295Z,2.77
2023-05-02T06:49:19.270Z,3.03
2023-05-02T06:51:46.285Z,2.47
2023-05-02T06:54:13.233Z,2.87
2023-05-02T06:56:40.071Z,2.60
2023-05-02T06:59:07.032Z,3.03
2023-05-02T07:01:33.989Z,2.90
2023-05-02T07:04:01.966Z,2.83
2023-05-02T07:06:28.896Z,3.20
2023-05-02T07:08:55.790Z,3.13
2023-05-02T07:11:24.223Z,3.60
2023-05-02T07:13:51.302Z,3.73
2023-05-02T07:16:18.236Z,3.53
2023-05-02T07:18:46.157Z,3.73
2023-05-02T07:21:13.454Z,2.90
2023-05-02T07:23:40.317Z,3.67
2023-05-02T07:26:07.421Z,3.00
2023-05-02T07:28:34.329Z,3.10
2023-05-02T07:31:01.348Z,4.73
2023-05-02T07:33:28.367Z,2.50
2023-05-02T07:35:56.289Z,2.70
2023-05-02T07:38:23.133Z,3.50
2023-05-02T07:40:50.077Z,3.73
2023-05-02T07:43:16.958Z,3.30
2023-05-02T07:45:43.874Z,2.90
2023-05-02T07:48:13.190Z,2.80
2023-05-02T07:50:40.110Z,3.00
2023-05-02T07:53:07.891Z,3.83
2023-05-02T07:55:34.807Z,3.60
2023-05-02T07:58:01.740Z,3.60
2023-05-02T08:00:28.615Z,2.97
2023-05-02T08:02:55.702Z,2.40
2023-05-02T08:05:22.946Z,2.43
2023-05-02T08:07:49.806Z,2.67
2023-05-02T08:10:16.714Z,2.63
2023-05-02T08:12:43.681Z,2.60
2023-05-02T08:15:12.061Z,2.57
2023-05-02T08:17:39.038Z,1.90
2023-05-02T08:20:06.627Z,1.93
2023-05-02T08:22:33.493Z,3.07
2023-05-02T08:25:00.531Z,3.33
2023-05-02T08:27:27.569Z,2.67
2023-05-02T08:29:54.467Z,2.27
2023-05-02T08:32:22.710Z,2.50
2023-05-02T08:34:49.671Z,2.28
2023-05-02T08:37:16.571Z,2.63
2023-05-02T08:39:43.464Z,2.67
2023-05-02T08:42:10.471Z,2.20
2023-05-02T08:44:37.622Z,2.80
2023-05-02T08:47:05.445Z,3.40
2023-05-02T08:49:33.131Z,2.72
2023-05-02T08:52:00.349Z,2.60
2023-05-02T08:54:27.272Z,2.30
2023-05-02T08:56:54.699Z,3.37
2023-05-02T08:59:21.595Z,2.75
2023-05-02T09:01:49.995Z,3.10
2023-05-02T09:04:18.444Z,2.83
2023-05-02T09:06:45.759Z,2.50
2023-05-02T09:09:12.728Z,3.63
2023-05-02T09:11:39.869Z,3.15
2023-05-02T09:14:17.641Z,2.57
2023-05-02T09:16:44.834Z,2.08
2023-05-02T09:19:11.707Z,2.72
2023-05-02T09:21:42.206Z,3.08
2023-05-02T09:24:20.736Z,4.38
2023-05-02T09:26:57.661Z,2.28
2023-05-02T09:29:24.511Z,2.50
2023-05-02T09:31:56.259Z,2.15
2023-05-02T09:34:23.879Z,3.45
2023-05-02T09:36:54.592Z,2.33
2023-05-02T09:39:25.569Z,2.97
2023-05-02T09:41:53.174Z,2.42
2023-05-02T09:44:25.450Z,3.40
2023-05-02T09:46:53.718Z,2.38
2023-05-02T09:49:38.706Z,2.65
2023-05-02T09:52:31.845Z,2.25
2023-05-02T09:54:59.000Z,2.95
2023-05-02T09:57:43.930Z,2.58
2023-05-02T10:00:11.683Z,2.45
2023-05-02T10:02:40.564Z,2.28
2023-05-02T10:05:07.666Z,3.40
2023-05-02T10:07:34.569Z,2.63
2023-05-02T10:10:01.482Z,2.75
2023-05-02T10:12:28.315Z,2.53
2023-05-02T10:14:58.244Z,2.65
2023-05-02T10:17:31.654Z,3.00
2023-05-02T10:20:07.270Z,3.00
2023-05-02T10:22:34.988Z,3.25
2023-05-02T10:25:03.649Z,2.58
2023-05-02T10:27:31.992Z,2.60
2023-05-02T10:29:59.539Z,2.40
2023-05-02T10:32:29.759Z,2.13
2023-05-02T10:35:04.142Z,2.03
2023-05-02T10:37:33.147Z,2.42
2023-05-02T10:40:00.371Z,2.75
2023-05-02T10:42:27.668Z,2.35
2023-05-02T10:44:54.543Z,3.10
2023-05-02T10:47:25.457Z,2.65
2023-05-02T10:49:55.606Z,2.85
2023-05-02T10:52:26.508Z,2.67
2023-05-02T10:55:10.293Z,2.47
2023-05-02T10:57:38.582Z,2.50
2023-05-02T11:00:25.612Z,2.50
2023-05-02T11:02:52.745Z,2.78
2023-05-02T11:05:22.441Z,3.25
2023-05-02T11:07:49.284Z,2.80
2023-05-02T11:10:20.239Z,2.35
2023-05-02T11:12:50.304Z,2.58
2023-05-02T11:15:27.023Z,2.58
2023-05-02T11:18:11.893Z,2.78
2023-05-02T11:20:42.731Z,2.20
2023-05-02T11:23:16.046Z,2.50
2023-05-02T11:25:46.956Z,2.65
2023-05-02T11:28:39.303Z,2.58
2023-05-02T11:31:07.071Z,2.63
2023-05-02T11:33:33.952Z,2.10
2023-05-02T11:36:01.303Z,2.42
2023-05-02T11:38:36.763Z,2.15
2023-05-02T11:41:04.821Z,2.00
2023-05-02T11:43:32.571Z,1.88
2023-05-02T11:46:00.831Z,1.92
2023-05-02T11:48:28.807Z,2.25
2023-05-02T11:51:02.356Z,2.15
2023-05-02T11:53:29.659Z,2.58
2023-05-02T11:55:58.377Z,2.63
2023-05-02T11:58:27.703Z,3.40
2023-05-02T12:00:54.632Z,2.40
2023-05-02T12:03:28.256Z,2.38
2023-05-02T12:05:55.603Z,2.35
2023-05-02T12:08:27.417Z,2.72
2023-05-02T12:10:55.408Z,2.28
2023-05-02T12:13:24.807Z,2.63
2023-05-02T12:15:52.270Z,1.98
2023-05-02T12:18:22.022Z,2.25
2023-05-02T12:20:55.635Z,2.20
2023-05-02T12:23:24.426Z,1.80
2023-05-02T12:25:51.433Z,2.20
2023-05-02T12:28:19.209Z,2.70
2023-05-02T12:30:48.249Z,2.78
2023-05-02T12:33:15.823Z,2.33
2023-05-02T12:35:43.006Z,2.40
2023-05-02T12:38:23.676Z,2.25
2023-05-02T12:40:54.666Z,2.55
2023-05-02T12:43:22.242Z,2.22
2023-05-02T12:45:49.680Z,2.20
2023-05-02T12:48:27.328Z,2.22
2023-05-02T12:50:54.955Z,2.60
2023-05-02T12:53:41.632Z,2.20
2023-05-02T12:56:08.811Z,2.85
2023-05-02T12:58:47.125Z,2.25
2023-05-02T13:01:15.047Z,2.63
2023-05-02T13:03:42.901Z,2.60
2023-05-02T13:06:10.112Z,2.35
2023-05-02T13:08:38.433Z,2.50
2023-05-02T13:11:05.534Z,2.45
2023-05-02T13:13:32.833Z,2.80
2023-05-02T13:15:59.914Z,2.42
2023-05-02T13:18:28.348Z,2.28
2023-05-02T13:20:55.444Z,2.35
2023-05-02T13:23:22.442Z,2.30
2023-05-02T13:25:49.328Z,2.65
2023-05-02T13:28:16.620Z,2.00
2023-05-02T13:30:43.545Z,2.78
2023-05-02T13:33:10.523Z,2.85
2023-05-02T13:35:37.505Z,2.40
2023-05-02T13:38:04.518Z,2.33
2023-05-02T13:40:31.467Z,2.20
2023-05-02T13:42:59.606Z,2.33
2023-05-02T13:45:26.515Z,2.90
2023-05-02T13:47:53.436Z,2.22
2023-05-02T13:50:20.447Z,2.53
2023-05-02T13:52:49.059Z,2.72
2023-05-02T13:55:17.309Z,2.67
2023-05-02T13:57:44.161Z,2.30
2023-05-02T14:00:11.607Z,1.90
2023-05-02T14:02:39.342Z,2.28
2023-05-02T14:05:06.991Z,2.30
2023-05-02T14:07:33.893Z,2.33
2023-05-02T14:10:01.097Z,2.38
2023-05-02T14:12:28.390Z,2.95
2023-05-02T14:14:55.281Z,3.00
2023-05-02T14:17:25.165Z,2.05
2023-05-02T14:19:52.132Z,2.08
2023-05-02T14:22:19.031Z,2.50
2023-05-02T14:24:45.881Z,2.20
2023-05-02T14:27:18.040Z,2.38
2023-05-02T14:29:46.101Z,2.28
2023-05-02T14:32:13.258Z,3.00
2023-05-02T14:34:40.546Z,1.65
2023-05-02T14:37:09.040Z,2.50
2023-05-02T14:39:36.916Z,2.15
2023-05-02T14:42:04.551Z,2.08
2023-05-02T14:44:31.777Z,2.30
2023-05-02T14:46:58.826Z,1.90
2023-05-02T14:49:27.069Z,2.78
2023-05-02T14:51:54.617Z,2.90
2023-05-02T14:54:28.341Z,2.60
2023-05-02T14:56:55.318Z,2.95
2023-05-02T14:59:22.569Z,2.65
2023-05-02T15:01:51.208Z,2.53
2023-05-02T15:04:19.887Z,2.33
2023-05-02T15:06:48.141Z,2.40
2023-05-02T15:09:16.353Z,2.50
2023-05-02T15:11:44.160Z,2.90
2023-05-02T15:14:11.003Z,2.47
2023-05-02T15:16:39.751Z,2.58
2023-05-02T15:19:07.227Z,2.53
2023-05-02T15:21:35.282Z,2.47
2023-05-02T15:24:02.743Z,2.20
2023-05-02T15:26:30.183Z,2.28
2023-05-02T15:28:59.971Z,2.50
2023-05-02T15:31:30.014Z,2.20
2023-05-02T15:34:00.372Z,3.28
2023-05-02T15:36:29.341Z,2.70
2023-05-02T15:38:57.094Z,3.17
2023-05-02T15:41:26.835Z,2.35
2023-05-02T15:43:53.729Z,2.50
2023-05-02T15:46:20.712Z,2.47
2023-05-02T15:48:48.158Z,2.20
2023-05-02T15:51:15.110Z,2.65
2023-05-02T15:53:44.336Z,2.35
2023-05-02T15:56:16.699Z,2.63
2023-05-02T15:58:44.716Z,2.20
2023-05-02T16:01:11.718Z,2.60
2023-05-02T16:03:41.336Z,2.50
2023-05-02T16:06:08.360Z,2.65
2023-05-02T16:08:35.249Z,2.72
2023-05-02T16:11:05.685Z,2.25
2023-05-02T16:13:32.716Z,2.20
2023-05-02T16:15:59.752Z,2.22
2023-05-02T16:18:29.643Z,2.65
2023-05-02T16:20:57.191Z,2.45
2023-05-02T16:23:25.752Z,2.90
2023-05-02T16:25:59.763Z,2.25
2023-05-02T16:28:26.733Z,2.40
2023-05-02T16:30:53.881Z,2.88
2023-05-02T16:33:21.906Z,2.65
2023-05-02T16:35:48.952Z,2.22
2023-05-02T16:38:15.862Z,2.28
2023-05-02T16:40:42.814Z,2.85
2023-05-02T16:43:09.654Z,2.80
2023-05-02T16:45:38.659Z,2.20
2023-05-02T16:48:05.895Z,2.38
2023-05-02T16:50:32.768Z,2.30
2023-05-02T16:52:59.633Z,2.20
2023-05-02T16:55:27.571Z,2.28
2023-05-02T16:57:54.594Z,2.22
2023-05-02T17:00:21.710Z,2.28
2023-05-02T17:02:48.839Z,2.33
2023-05-02T17:05:16.766Z,2.15
2023-05-02T17:07:43.670Z,2.40
2023-05-02T17:10:11.745Z,2.28
2023-05-02T17:12:38.623Z,2.65
2023-05-02T17:15:07.526Z,2.45
2023-05-02T17:17:34.453Z,2.28
2023-05-02T17:20:02.343Z,2.28
2023-05-02T17:22:29.488Z,2.50
2023-05-02T17:24:56.418Z,2.65
2023-05-02T17:27:23.251Z,2.42
2023-05-02T17:29:50.383Z,2.30
2023-05-02T17:32:17.387Z,3.92
2023-05-02T17:34:44.800Z,2.58
2023-05-02T17:37:11.689Z,2.57
2023-05-02T17:39:39.156Z,3.05
2023-05-02T17:42:06.137Z,3.13
2023-05-02T17:44:36.112Z,3.20
2023-05-02T17:47:03.847Z,4.30
2023-05-02T17:49:30.837Z,3.03
2023-05-02T17:51:57.683Z,2.87
2023-05-02T17:54:24.591Z,3.07
2023-05-02T17:56:52.342Z,3.30
2023-05-02T17:59:20.610Z,2.83
2023-05-02T18:01:47.585Z,2.87
2023-05-02T18:04:14.996Z,2.97
2023-05-02T18:06:42.042Z,2.33
2023-05-02T18:09:08.908Z,2.60
2023-05-02T18:11:35.765Z,2.37
2023-05-02T18:14:06.120Z,3.00
2023-05-02T18:16:34.527Z,2.37
2023-05-02T18:19:01.671Z,3.17
2023-05-02T18:21:29.037Z,3.40
2023-05-02T18:23:56.987Z,2.97
2023-05-02T18:26:23.882Z,2.87
2023-05-02T18:28:53.329Z,2.80
2023-05-02T18:31:20.731Z,3.50
2023-05-02T18:33:47.805Z,3.20
2023-05-02T18:36:20.668Z,3.37
2023-05-02T18:38:47.620Z,3.17
2023-05-02T18:41:14.510Z,3.37
2023-05-02T18:43:41.600Z,3.73
2023-05-02T18:46:09.102Z,3.60
2023-05-02T18:48:36.396Z,3.50
2023-05-02T18:51:03.378Z,3.27
2023-05-02T18:53:30.505Z,2.90
2023-05-02T18:55:57.842Z,3.00
2023-05-02T18:58:24.732Z,4.13
2023-05-02T19:00:51.647Z,3.50
2023-05-02T19:03:19.200Z,3.87
2023-05-02T19:05:46.208Z,3.20
2023-05-02T19:08:13.069Z,3.60
2023-05-02T19:10:39.988Z,3.47
2023-05-02T19:13:06.832Z,3.63
2023-05-02T19:15:34.846Z,3.67
2023-05-02T19:18:02.217Z,3.53
2023-05-02T19:20:31.856Z,3.87
2023-05-02T19:23:17.627Z,3.37
2023-05-02T19:25:46.612Z,3.33
2023-05-02T19:28:15.893Z,3.07
2023-05-02T19:30:43.919Z,3.47
2023-05-02T19:33:10.835Z,3.80
2023-05-02T19:35:37.747Z,3.67
2023-05-02T19:38:04.589Z,3.30
2023-05-02T19:40:31.556Z,4.03
2023-05-02T19:42:58.503Z,3.13
2023-05-02T19:45:25.545Z,3.50
2023-05-02T19:47:52.674Z,4.10
2023-05-02T19:50:19.870Z,3.43
2023-05-02T19:52:46.938Z,3.30
2023-05-02T19:55:16.281Z,3.73
2023-05-02T19:57:44.879Z,3.17
2023-05-02T20:00:13.049Z,2.90
2023-05-02T20:02:40.302Z,2.90
2023-05-02T20:05:08.032Z,3.80
2023-05-02T20:07:34.923Z,2.80
2023-05-02T20:10:03.582Z,3.53
2023-05-02T20:12:30.815Z,3.33
2023-05-02T20:14:57.729Z,3.10
2023-05-02T20:17:25.722Z,2.70
2023-05-02T20:19:52.704Z,4.00
2023-05-02T20:22:19.789Z,3.43
2023-05-02T20:24:46.795Z,3.30
2023-05-02T20:27:13.937Z,3.90
2023-05-02T20:29:41.104Z,3.40
2023-05-02T20:32:08.411Z,3.97
2023-05-02T20:34:35.698Z,2.87
2023-05-02T20:37:05.421Z,3.17
2023-05-02T20:39:32.474Z,3.00
2023-05-02T20:41:59.462Z,4.50
2023-05-02T20:44:28.556Z,3.20
2023-05-02T20:46:55.546Z,4.83
2023-05-02T20:49:22.434Z,3.47
2023-05-02T20:51:50.260Z,3.17
2023-05-02T20:54:17.726Z,2.93
2023-05-02T20:56:44.613Z,3.33
2023-05-02T20:59:11.689Z,3.67
2023-05-02T21:01:38.846Z,3.90
2023-05-02T21:04:06.059Z,3.27
2023-05-02T21:06:33.110Z,2.97
2023-05-02T21:09:01.941Z,3.00
2023-05-02T21:11:29.038Z,3.87
2023-05-02T21:13:55.931Z,3.13
2023-05-02T21:16:22.949Z,2.67
2023-05-02T21:18:49.888Z,3.13
2023-05-02T21:21:16.957Z,3.40
2023-05-02T21:23:43.931Z,2.57
2023-05-02T21:26:10.874Z,3.67
2023-05-02T21:28:38.721Z,2.90
2023-05-02T21:31:06.829Z,2.83
2023-05-02T21:33:33.773Z,2.70
2023-05-02T21:36:01.720Z,2.70
2023-05-02T21:38:29.050Z,3.17
2023-05-02T21:40:56.260Z,3.20
2023-05-02T21:43:23.157Z,2.87
2023-05-02T21:45:51.052Z,3.57
2023-05-02T21:48:18.114Z,3.03
2023-05-02T21:50:45.027Z,3.90
2023-05-02T21:53:12.077Z,3.63
2023-05-02T21:55:41.637Z,2.97
2023-05-02T21:58:09.599Z,3.60
2023-05-02T22:00:40.409Z,3.43
2023-05-02T22:03:08.622Z,3.70
2023-05-02T22:05:42.238Z,3.30
2023-05-02T22:08:11.160Z,3.50
2023-05-02T22:10:39.709Z,4.10
2023-05-02T22:13:09.556Z,3.33
2023-05-02T22:15:36.728Z,3.27
2023-05-02T22:18:07.098Z,3.80
2023-05-02T22:20:34.085Z,3.73
2023-05-02T22:23:01.013Z,3.63
2023-05-02T22:25:27.973Z,4.37
2023-05-02T22:27:54.880Z,3.70
2023-05-02T22:30:21.923Z,3.60
2023-05-02T22:32:48.807Z,3.77
2023-05-02T22:35:15.771Z,4.20
2023-05-02T22:37:42.682Z,4.03
2023-05-02T22:40:10.398Z,3.83
2023-05-02T22:42:37.328Z,3.80
2023-05-02T22:45:04.638Z,4.07
2023-05-02T22:47:32.338Z,3.90
2023-05-02T22:49:59.636Z,4.37
2023-05-02T22:52:27.548Z,4.60
2023-05-02T22:54:54.567Z,5.03
2023-05-02T22:57:21.654Z,5.13
2023-05-02T22:59:48.500Z,4.97
2023-05-02T23:02:15.475Z,5.07
2023-05-02T23:04:42.370Z,4.87
2023-05-02T23:07:09.259Z,5.90
2023-05-02T23:09:36.128Z,4.57
2023-05-02T23:12:03.975Z,6.00
2023-05-02T23:14:30.959Z,5.70
2023-05-02T23:16:58.461Z,5.10
2023-05-02T23:19:25.939Z,5.33
2023-05-02T23:21:52.809Z,5.17
2023-05-02T23:24:19.648Z,6.57
2023-05-02T23:26:46.555Z,5.87
2023-05-02T23:29:13.439Z,6.30
2023-05-02T23:31:40.712Z,6.10
2023-05-02T23:34:07.659Z,7.27
2023-05-02T23:36:35.175Z,6.47
2023-05-02T23:39:02.634Z,6.73
2023-05-02T23:41:30.108Z,7.00
2023-05-02T23:43:56.994Z,6.30
2023-05-02T23:46:24.612Z,7.43
2023-05-02T23:48:51.476Z,7.70
2023-05-02T23:51:18.336Z,7.83
2023-05-02T23:53:45.380Z,6.77
2023-05-02T23:56:12.298Z,6.50
2023-05-02T23:58:39.141Z,6.47
